Time;durP1;ratioP1;P1;durP2;ratioP2;P2;SDS_P1;SDS_P2;PMS_P1;PMS_P2;Temp;Humidity;BMP_temperature;BMP_pressure;BME280_temperature;BME280_humidity;BME280_pressure;Samples;Min_cycle;Max_cycle;Signal;HPM_P1;HPM_P2
2023/03/13 00:01:19;;;;;;;4.43;4.00;;;5.10;66.90;;;;;;4974633;28;20042;-65
2023/03/13 00:03:45;;;;;;;4.20;3.80;;;5.10;67.00;;;;;;4974237;28;20035;-64
2023/03/13 00:06:11;;;;;;;7.03;4.72;;;5.00;66.90;;;;;;4974483;28;20030;-64
2023/03/13 00:08:37;;;;;;;6.07;4.65;;;5.00;67.60;;;;;;4974775;28;20117;-64
2023/03/13 00:11:04;;;;;;;5.53;4.00;;;5.00;67.10;;;;;;4974558;28;20046;-65
2023/03/13 00:13:30;;;;;;;4.45;3.92;;;5.00;67.10;;;;;;4975179;28;20398;-63
2023/03/13 00:16:06;;;;;;;4.85;4.35;;;5.00;67.10;;;;;;4974937;28;20034;-49
2023/03/13 00:18:32;;;;;;;4.65;4.00;;;5.00;67.10;;;;;;4974386;28;20165;-51
2023/03/13 00:21:03;;;;;;;4.65;3.90;;;5.00;67.00;;;;;;4973646;28;20110;-52
2023/03/13 00:23:29;;;;;;;4.47;3.92;;;5.00;67.00;;;;;;4973432;28;20088;-52
2023/03/13 00:26:10;;;;;;;5.05;3.90;;;4.90;67.00;;;;;;4975657;28;20027;-57
2023/03/13 00:28:37;;;;;;;5.23;4.57;;;4.90;67.00;;;;;;4974974;28;20027;-58
2023/03/13 00:31:14;;;;;;;5.03;4.10;;;4.90;66.90;;;;;;4974674;28;20030;-57
2023/03/13 00:33:45;;;;;;;5.68;4.53;;;4.90;67.00;;;;;;4975145;28;20042;-57
2023/03/13 00:36:17;;;;;;;5.70;4.60;;;4.90;66.90;;;;;;4985364;28;20026;-57
2023/03/13 00:38:42;;;;;;;4.38;3.92;;;4.90;67.00;;;;;;4974935;28;20023;-58
2023/03/13 00:41:14;;;;;;;5.60;4.40;;;4.90;67.00;;;;;;4975134;28;20493;-58
2023/03/13 00:43:42;;;;;;;4.85;4.10;;;4.80;66.90;;;;;;4970496;28;20117;-58
2023/03/13 00:46:08;;;;;;;4.53;3.97;;;4.80;67.00;;;;;;4975299;28;20031;-58
2023/03/13 00:48:34;;;;;;;5.45;4.20;;;4.80;66.90;;;;;;4973648;28;20807;-58
2023/03/13 00:51:01;;;;;;;4.95;4.10;;;4.80;67.00;;;;;;4974656;28;20038;-58
2023/03/13 00:53:27;;;;;;;5.35;3.97;;;4.80;66.90;;;;;;4974184;28;20026;-58
2023/03/13 00:55:59;;;;;;;6.50;4.13;;;4.70;66.90;;;;;;4974485;28;20059;-47
2023/03/13 00:58:26;;;;;;;5.00;3.45;;;4.70;66.90;;;;;;4980227;28;20030;-52
2023/03/13 01:00:53;;;;;;;4.05;3.50;;;4.60;66.30;;;;;;4974202;28;20049;-49
2023/03/13 01:03:21;;;;;;;5.15;3.53;;;4.50;66.20;;;;;;4973489;28;20041;-48
2023/03/13 01:05:59;;;;;;;4.45;3.42;;;4.40;66.30;;;;;;4974702;28;20066;-52
2023/03/13 01:08:26;;;;;;;3.47;3.08;;;4.20;66.40;;;;;;4974407;28;20058;-51
2023/03/13 01:11:07;;;;;;;4.35;3.38;;;4.10;66.40;;;;;;4974062;28;20079;-49
2023/03/13 01:13:33;;;;;;;4.38;3.28;;;4.00;66.70;;;;;;4974317;28;20061;-52
2023/03/13 01:16:26;;;;;;;3.35;3.03;;;3.90;66.40;;;;;;4974399;28;20030;-50
2023/03/13 01:18:55;;;;;;;3.10;2.80;;;3.90;66.30;;;;;;4966936;28;20071;-47
2023/03/13 01:21:22;;;;;;;3.85;3.00;;;3.80;66.50;;;;;;4974396;28;20026;-47
2023/03/13 01:23:49;;;;;;;3.10;2.80;;;3.70;66.60;;;;;;4973893;28;20481;-55
2023/03/13 01:26:15;;;;;;;3.03;2.80;;;3.70;66.40;;;;;;4962405;28;20070;-47
2023/03/13 01:28:41;;;;;;;3.13;2.83;;;3.60;66.30;;;;;;4973991;28;20472;-50
2023/03/13 01:31:17;;;;;;;3.00;2.67;;;3.60;66.10;;;;;;4973680;28;20027;-49
2023/03/13 01:33:43;;;;;;;2.80;2.60;;;3.60;66.30;;;;;;4969220;28;20042;-48
2023/03/13 01:36:09;;;;;;;2.80;2.60;;;3.60;66.30;;;;;;4973616;28;20496;-50
2023/03/13 01:38:36;;;;;;;3.05;2.75;;;3.60;66.30;;;;;;4971068;28;20050;-52
2023/03/13 01:41:02;;;;;;;3.03;2.60;;;3.60;66.40;;;;;;4970585;28;20039;-60
2023/03/13 01:43:30;;;;;;;3.05;2.80;;;3.60;66.30;;;;;;4974568;28;20089;-60
2023/03/13 01:45:56;;;;;;;2.80;2.50;;;3.60;66.30;;;;;;4975228;28;20034;-59
2023/03/13 01:48:29;;;;;;;2.97;2.78;;;3.60;66.10;;;;;;4972520;28;20026;-59
2023/03/13 01:50:57;;;;;;;3.00;2.70;;;3.60;66.00;;;;;;4961988;28;20030;-58
2023/03/13 01:53:25;;;;;;;2.90;2.53;;;3.70;66.30;;;;;;4970679;28;20019;-58
2023/03/13 01:55:52;;;;;;;2.85;2.63;;;3.70;66.10;;;;;;4977352;28;20034;-58
2023/03/13 01:58:18;;;;;;;2.80;2.60;;;3.70;66.10;;;;;;4976201;28;20042;-58
2023/03/13 02:00:45;;;;;;;3.15;2.67;;;3.80;65.90;;;;;;4973042;28;20081;-58
2023/03/13 02:03:16;;;;;;;2.95;2.63;;;3.80;65.30;;;;;;4973852;28;20101;-58
2023/03/13 02:05:43;;;;;;;2.80;2.60;;;3.80;65.30;;;;;;4971965;28;20074;-59
2023/03/13 02:08:36;;;;;;;3.10;2.70;;;3.80;65.70;;;;;;4962982;28;20038;-58
2023/03/13 02:11:23;;;;;;;3.10;2.80;;;3.80;65.60;;;;;;4967511;28;20512;-59
2023/03/13 02:13:50;;;;;;;2.35;2.20;;;3.90;65.50;;;;;;4963944;28;20027;-58
2023/03/13 02:16:16;;;;;;;3.47;2.75;;;3.90;65.50;;;;;;4973235;28;21403;-59
2023/03/13 02:18:42;;;;;;;3.00;2.58;;;4.00;65.40;;;;;;4972918;28;20039;-58
2023/03/13 02:21:15;;;;;;;2.85;2.58;;;4.00;65.30;;;;;;4973191;28;20046;-58
2023/03/13 02:24:02;;;;;;;3.42;2.90;;;4.00;65.20;;;;;;4973358;28;20498;-58
2023/03/13 02:26:27;;;;;;;3.53;2.58;;;4.10;65.00;;;;;;4972979;28;20077;-58
2023/03/13 02:28:53;;;;;;;3.05;2.50;;;4.10;64.50;;;;;;4972665;28;20034;-58
2023/03/13 02:31:19;;;;;;;3.10;2.55;;;4.10;64.20;;;;;;4972984;28;20030;-58
2023/03/13 02:33:45;;;;;;;3.13;2.58;;;4.00;63.90;;;;;;4973634;28;20035;-58
2023/03/13 02:36:13;;;;;;;3.10;2.80;;;4.00;64.40;;;;;;4972319;28;20061;-58
2023/03/13 02:39:00;;;;;;;2.63;2.33;;;4.00;64.40;;;;;;4973000;28;20359;-58
2023/03/13 02:41:27;;;;;;;2.53;2.30;;;3.90;64.30;;;;;;4964337;28;20066;-58
2023/03/13 02:43:53;;;;;;;2.60;2.40;;;4.00;64.40;;;;;;4973768;28;20042;-58
2023/03/13 02:46:20;;;;;;;3.28;2.33;;;4.00;64.10;;;;;;4984257;28;20026;-58
2023/03/13 02:48:49;;;;;;;2.50;2.30;;;4.00;64.10;;;;;;4982393;28;20069;-58
2023/03/13 02:51:24;;;;;;;2.65;2.45;;;4.10;64.00;;;;;;4979456;28;20026;-58
2023/03/13 02:53:52;;;;;;;2.55;2.25;;;4.10;63.80;;;;;;4979178;28;20031;-58
2023/03/13 02:56:23;;;;;;;3.25;2.95;;;4.10;63.70;;;;;;4982539;28;20031;-57
2023/03/13 02:58:49;;;;;;;4.38;2.83;;;4.20;63.60;;;;;;4988521;28;20074;-58
2023/03/13 03:01:14;;;;;;;2.95;2.58;;;4.20;63.40;;;;;;4979115;28;20062;-57
2023/03/13 03:03:40;;;;;;;2.85;2.65;;;4.20;63.40;;;;;;4978911;28;20438;-58
2023/03/13 03:06:06;;;;;;;3.60;2.90;;;4.20;63.40;;;;;;4978547;28;20490;-58
2023/03/13 03:08:33;;;;;;;2.85;2.55;;;4.30;63.20;;;;;;4978824;28;20409;-56
2023/03/13 03:10:58;;;;;;;4.75;3.10;;;4.30;63.10;;;;;;4979040;28;20104;-57
2023/03/13 03:13:24;;;;;;;3.72;3.17;;;4.30;63.00;;;;;;4979282;28;20513;-57
2023/03/13 03:15:50;;;;;;;3.95;2.83;;;4.30;62.90;;;;;;4978877;28;20034;-57
2023/03/13 03:18:16;;;;;;;3.13;2.65;;;4.30;63.00;;;;;;4979135;28;20115;-57
2023/03/13 03:20:41;;;;;;;3.08;2.65;;;4.30;62.80;;;;;;4978410;28;20462;-57
2023/03/13 03:23:07;;;;;;;4.13;2.63;;;4.20;62.90;;;;;;4979044;28;20053;-58
2023/03/13 03:25:32;;;;;;;5.22;2.90;;;4.20;62.90;;;;;;4978667;28;20031;-56
2023/03/13 03:27:58;;;;;;;3.85;2.65;;;4.20;62.80;;;;;;4978311;28;20373;-57
2023/03/13 03:30:24;;;;;;;3.55;2.70;;;4.20;62.80;;;;;;4978915;28;20041;-57
2023/03/13 03:32:50;;;;;;;4.50;3.30;;;4.20;62.80;;;;;;4978163;28;20043;-56
2023/03/13 03:35:16;;;;;;;4.13;3.50;;;4.10;62.70;;;;;;4979656;28;20046;-57
2023/03/13 03:37:42;;;;;;;3.25;2.85;;;4.10;62.70;;;;;;4978036;28;20033;-47
2023/03/13 03:40:08;;;;;;;3.65;3.28;;;4.10;62.60;;;;;;4978869;28;20063;-51
2023/03/13 03:42:35;;;;;;;7.35;4.13;;;4.10;62.50;;;;;;4975696;28;20037;-49
2023/03/13 03:45:01;;;;;;;4.47;3.65;;;4.10;62.50;;;;;;4978962;28;20030;-52
2023/03/13 03:47:26;;;;;;;5.15;3.67;;;4.10;62.50;;;;;;4987440;28;20038;-60
2023/03/13 03:49:52;;;;;;;5.57;3.70;;;4.10;62.30;;;;;;4978735;28;20066;-62
2023/03/13 03:52:18;;;;;;;5.85;4.07;;;4.00;62.30;;;;;;4979025;28;20440;-60
2023/03/13 03:54:43;;;;;;;7.00;4.18;;;4.00;62.30;;;;;;4979855;28;20065;-60
2023/03/13 03:57:09;;;;;;;7.07;4.68;;;4.00;62.30;;;;;;4976944;28;20045;-61
2023/03/13 03:59:34;;;;;;;6.32;4.03;;;4.00;62.50;;;;;;4975418;28;20058;-60
2023/03/13 04:02:00;;;;;;;9.40;4.47;;;4.00;62.50;;;;;;4975786;28;20057;-60
2023/03/13 04:04:26;;;;;;;5.68;3.85;;;4.00;62.40;;;;;;4975743;28;20589;-60
2023/03/13 04:06:52;;;;;;;6.28;4.00;;;4.00;62.40;;;;;;4975693;28;20034;-66
2023/03/13 04:09:17;;;;;;;6.80;3.75;;;4.00;62.20;;;;;;4975813;28;20051;-66
2023/03/13 04:11:43;;;;;;;4.00;3.30;;;3.90;62.20;;;;;;4974186;28;20038;-65
2023/03/13 04:14:09;;;;;;;3.72;2.95;;;3.80;62.30;;;;;;4973071;28;20037;-66
2023/03/13 04:16:34;;;;;;;4.72;3.08;;;3.70;62.50;;;;;;4975178;28;20106;-63
2023/03/13 04:19:00;;;;;;;2.80;2.60;;;3.60;62.50;;;;;;4975512;28;20074;-65
2023/03/13 04:21:26;;;;;;;3.05;2.60;;;3.60;62.80;;;;;;4974013;28;20419;-64
2023/03/13 04:23:51;;;;;;;2.80;2.60;;;3.50;62.90;;;;;;4975506;28;20545;-63
2023/03/13 04:26:17;;;;;;;3.83;3.00;;;3.40;63.00;;;;;;4975189;28;20038;-65
2023/03/13 04:28:43;;;;;;;4.90;2.80;;;3.40;63.20;;;;;;4974090;28;20546;-64
2023/03/13 04:31:08;;;;;;;3.85;3.05;;;3.30;63.10;;;;;;4975353;28;20031;-65
2023/03/13 04:33:35;;;;;;;4.18;2.92;;;3.30;63.50;;;;;;4975346;28;20033;-65
2023/03/13 04:36:02;;;;;;;4.05;3.03;;;3.20;63.40;;;;;;4977288;28;20339;-65
2023/03/13 04:38:27;;;;;;;4.47;3.45;;;3.20;63.50;;;;;;4975072;28;20035;-65
2023/03/13 04:40:53;;;;;;;5.05;3.33;;;3.20;63.50;;;;;;4971952;28;20035;-65
2023/03/13 04:43:19;;;;;;;4.07;3.00;;;3.20;63.70;;;;;;4975796;28;20118;-64
2023/03/13 04:45:45;;;;;;;3.88;2.78;;;3.20;63.70;;;;;;4975063;28;20054;-59
2023/03/13 04:48:11;;;;;;;3.03;2.70;;;3.30;63.80;;;;;;4976597;28;20112;-58
2023/03/13 04:50:36;;;;;;;5.63;3.28;;;3.30;63.70;;;;;;4970120;28;20083;-54
2023/03/13 04:53:02;;;;;;;4.15;2.95;;;3.30;63.70;;;;;;4967171;28;20689;-49
2023/03/13 04:55:28;;;;;;;3.42;2.60;;;3.40;64.60;;;;;;4976700;28;20485;-52
2023/03/13 04:57:53;;;;;;;4.45;2.70;;;3.50;64.70;;;;;;4973667;28;20027;-48
2023/03/13 05:00:19;;;;;;;3.50;2.97;;;3.60;63.70;;;;;;4974582;28;20049;-51
2023/03/13 05:02:45;;;;;;;3.65;2.85;;;3.70;63.70;;;;;;4974857;28;20031;-52
2023/03/13 05:05:10;;;;;;;2.42;2.22;;;3.80;63.70;;;;;;4974320;28;20023;-51
2023/03/13 05:07:36;;;;;;;2.92;2.60;;;3.90;63.50;;;;;;4973970;28;20093;-57
2023/03/13 05:10:02;;;;;;;4.63;2.90;;;4.00;63.50;;;;;;4974173;28;20085;-57
2023/03/13 05:12:27;;;;;;;3.30;2.90;;;4.00;63.50;;;;;;4973351;28;20031;-58
2023/03/13 05:14:53;;;;;;;4.22;2.60;;;4.10;63.70;;;;;;4972454;28;20451;-57
2023/03/13 05:17:18;;;;;;;2.97;2.63;;;4.20;63.70;;;;;;4974197;28;20034;-57
2023/03/13 05:19:44;;;;;;;3.10;2.80;;;4.30;64.00;;;;;;4973288;28;20039;-57
2023/03/13 05:22:10;;;;;;;2.70;2.50;;;4.50;63.80;;;;;;4974210;28;20073;-60
2023/03/13 05:24:35;;;;;;;2.90;2.50;;;4.60;63.90;;;;;;4973911;28;20074;-60
2023/03/13 05:27:01;;;;;;;3.13;2.70;;;4.70;64.00;;;;;;4973335;28;20054;-61
2023/03/13 05:29:27;;;;;;;4.35;2.90;;;4.90;63.90;;;;;;4962230;28;20066;-61
2023/03/13 05:31:52;;;;;;;3.67;2.70;;;5.00;63.80;;;;;;4973091;28;20027;-61
2023/03/13 05:34:18;;;;;;;3.92;2.60;;;5.10;64.00;;;;;;4973117;28;20023;-61
2023/03/13 05:36:44;;;;;;;2.97;2.63;;;5.30;63.60;;;;;;4972829;28;20473;-56
2023/03/13 05:39:09;;;;;;;3.38;2.70;;;5.40;63.90;;;;;;4972500;28;20069;-53
2023/03/13 05:41:35;;;;;;;4.97;2.88;;;5.60;64.10;;;;;;4969354;28;20031;-57
2023/03/13 05:44:01;;;;;;;4.57;3.08;;;5.70;63.40;;;;;;4972192;28;20040;-58
2023/03/13 05:46:26;;;;;;;3.67;2.60;;;5.90;63.50;;;;;;4979104;28;20030;-57
2023/03/13 05:48:52;;;;;;;3.47;2.70;;;6.10;63.10;;;;;;4975475;28;20022;-57
2023/03/13 05:51:18;;;;;;;3.88;3.00;;;6.30;62.90;;;;;;4973038;28;20480;-63
2023/03/13 05:53:44;;;;;;;3.55;2.83;;;6.40;62.90;;;;;;4973247;28;20031;-63
2023/03/13 05:56:09;;;;;;;4.45;3.13;;;6.70;62.40;;;;;;4975119;28;20054;-60
2023/03/13 05:58:35;;;;;;;4.68;3.25;;;7.10;62.30;;;;;;4974945;28;20031;-61
2023/03/13 06:01:11;;;;;;;3.47;2.90;;;7.50;61.80;;;;;;4966617;28;20465;-60
2023/03/13 06:03:37;;;;;;;4.75;3.13;;;7.90;61.00;;;;;;4972639;28;20414;-59
2023/03/13 06:06:03;;;;;;;4.63;3.25;;;8.20;60.10;;;;;;4972859;28;20042;-57
2023/03/13 06:08:29;;;;;;;4.05;3.10;;;8.50;59.50;;;;;;4972271;28;20705;-55
2023/03/13 06:10:58;;;;;;;3.33;3.00;;;8.90;59.60;;;;;;4972507;28;20045;-58
2023/03/13 06:13:24;;;;;;;4.20;2.97;;;9.40;58.80;;;;;;4969651;28;20030;-58
2023/03/13 06:15:51;;;;;;;3.25;2.63;;;9.80;58.10;;;;;;4972573;28;20417;-58
2023/03/13 06:18:17;;;;;;;2.75;2.50;;;10.10;57.20;;;;;;4973388;28;20034;-58
2023/03/13 06:20:43;;;;;;;4.05;2.55;;;10.40;57.40;;;;;;4971821;28;20065;-61
2023/03/13 06:23:09;;;;;;;2.47;2.22;;;10.80;56.60;;;;;;4971239;28;20125;-61
2023/03/13 06:25:34;;;;;;;2.83;2.40;;;11.00;55.90;;;;;;4972053;28;20054;-61
2023/03/13 06:28:00;;;;;;;4.65;2.60;;;11.40;55.60;;;;;;4969587;28;20109;-61
2023/03/13 06:30:26;;;;;;;2.80;2.53;;;11.80;55.80;;;;;;4970463;28;20142;-61
2023/03/13 06:32:51;;;;;;;3.33;2.70;;;12.20;54.80;;;;;;4971104;28;20062;-53
2023/03/13 06:35:17;;;;;;;3.25;2.70;;;12.40;54.70;;;;;;4970829;28;20026;-50
2023/03/13 06:37:42;;;;;;;3.58;2.72;;;12.70;53.40;;;;;;4971624;28;20462;-65
2023/03/13 06:40:09;;;;;;;2.65;2.38;;;12.80;52.10;;;;;;4972969;28;20462;-66
2023/03/13 06:42:35;;;;;;;3.25;2.72;;;12.60;51.80;;;;;;4969649;28;20457;-61
2023/03/13 06:45:02;;;;;;;3.75;2.60;;;12.40;51.90;;;;;;4967189;28;20035;-61
2023/03/13 06:47:30;;;;;;;2.65;2.30;;;12.00;51.90;;;;;;4977197;28;20540;-61
2023/03/13 06:49:56;;;;;;;4.72;2.60;;;11.60;51.90;;;;;;4958967;28;20524;-61
2023/03/13 06:52:23;;;;;;;2.90;2.60;;;11.30;51.90;;;;;;4959683;28;20094;-61
2023/03/13 06:54:49;;;;;;;2.85;2.60;;;10.90;52.20;;;;;;4960422;28;20409;-60
2023/03/13 06:57:14;;;;;;;4.10;2.70;;;10.60;52.60;;;;;;4961050;28;20045;-62
2023/03/13 06:59:40;;;;;;;4.53;2.60;;;10.30;52.90;;;;;;4972639;28;20038;-62
2023/03/13 07:02:06;;;;;;;2.75;2.38;;;10.00;52.80;;;;;;4960333;28;20088;-61
2023/03/13 07:04:31;;;;;;;2.63;2.42;;;9.70;53.10;;;;;;4954528;28;20129;-59
2023/03/13 07:06:57;;;;;;;2.47;2.28;;;9.40;53.50;;;;;;4962091;28;20038;-61
2023/03/13 07:09:23;;;;;;;3.50;2.85;;;9.20;53.60;;;;;;4972302;28;20040;-61
2023/03/13 07:11:48;;;;;;;3.83;2.67;;;9.00;53.40;;;;;;4957339;28;20038;-61
2023/03/13 07:14:14;;;;;;;3.60;2.53;;;8.80;53.80;;;;;;4961884;28;20058;-59
2023/03/13 07:16:40;;;;;;;3.45;2.65;;;8.70;53.90;;;;;;4953387;28;20158;-61
2023/03/13 07:19:05;;;;;;;3.60;2.83;;;8.50;54.00;;;;;;4959693;28;20057;-60
2023/03/13 07:21:31;;;;;;;4.35;2.65;;;8.40;53.90;;;;;;4962249;28;20038;-60
2023/03/13 07:23:56;;;;;;;3.83;2.80;;;8.30;53.70;;;;;;4962141;28;20150;-60
2023/03/13 07:26:22;;;;;;;3.92;2.80;;;8.20;53.90;;;;;;4957578;28;20658;-61
2023/03/13 07:28:48;;;;;;;3.78;2.88;;;8.00;53.90;;;;;;4964379;28;20027;-61
2023/03/13 07:31:16;;;;;;;3.22;2.80;;;7.90;54.20;;;;;;4967872;28;20064;-60
2023/03/13 07:33:42;;;;;;;2.60;2.40;;;7.80;54.20;;;;;;4965109;28;20035;-61
2023/03/13 07:36:08;;;;;;;3.25;2.72;;;7.70;54.60;;;;;;4970327;28;20612;-59
2023/03/13 07:38:34;;;;;;;4.60;3.20;;;7.70;54.50;;;;;;4975532;28;20040;-60
2023/03/13 07:41:00;;;;;;;3.15;2.85;;;7.60;54.80;;;;;;4963765;28;20457;-61
2023/03/13 07:43:26;;;;;;;4.57;3.20;;;7.60;54.60;;;;;;4968803;28;20043;-60
2023/03/13 07:45:59;;;;;;;3.88;2.90;;;7.60;54.70;;;;;;4999922;28;20028;-61
2023/03/13 07:48:29;;;;;;;3.78;3.05;;;7.50;54.80;;;;;;4966204;28;20027;-61
2023/03/13 07:50:55;;;;;;;3.60;2.60;;;7.50;55.00;;;;;;4965618;28;20031;-61
2023/03/13 07:53:21;;;;;;;2.95;2.60;;;7.60;54.50;;;;;;4960313;28;20046;-60
2023/03/13 07:55:52;;;;;;;4.57;2.83;;;7.60;54.30;;;;;;4962997;28;20035;-60
2023/03/13 07:58:18;;;;;;;3.33;2.50;;;7.50;54.20;;;;;;4961024;28;21688;-60
2023/03/13 08:00:44;;;;;;;2.53;2.33;;;7.50;54.00;;;;;;4961878;28;20057;-62
2023/03/13 08:03:09;;;;;;;2.97;2.55;;;7.50;54.10;;;;;;4969858;28;20993;-61
2023/03/13 08:05:35;;;;;;;3.92;2.35;;;7.50;54.20;;;;;;4949499;28;20081;-61
2023/03/13 08:08:01;;;;;;;3.05;2.40;;;7.50;53.90;;;;;;4952147;28;20711;-61
2023/03/13 08:10:26;;;;;;;2.47;2.28;;;7.50;53.70;;;;;;4966683;28;20130;-60
2023/03/13 08:12:52;;;;;;;2.47;2.20;;;7.60;53.90;;;;;;4967793;28;20572;-62
2023/03/13 08:15:24;;;;;;;2.75;2.55;;;7.60;53.40;;;;;;4962038;28;20034;-60
2023/03/13 08:17:50;;;;;;;2.72;2.53;;;7.60;53.30;;;;;;4958718;28;20165;-61
2023/03/13 08:20:17;;;;;;;2.88;2.58;;;7.60;52.70;;;;;;4970216;28;20064;-61
2023/03/13 08:22:46;;;;;;;4.57;2.70;;;7.60;52.80;;;;;;4955015;28;20042;-60
2023/03/13 08:25:13;;;;;;;3.38;2.88;;;7.60;53.10;;;;;;4954149;28;20117;-61
2023/03/13 08:27:39;;;;;;;3.13;2.80;;;7.60;53.20;;;;;;4952403;28;20027;-58
2023/03/13 08:30:05;;;;;;;3.20;2.90;;;7.60;53.50;;;;;;4941654;28;20080;-61
2023/03/13 08:32:35;;;;;;;3.55;2.70;;;7.60;53.10;;;;;;4954816;28;20406;-61
2023/03/13 08:35:02;;;;;;;4.35;2.75;;;7.60;53.40;;;;;;4954675;28;20086;-61
2023/03/13 08:37:28;;;;;;;3.13;2.60;;;7.60;53.20;;;;;;4959300;28;20038;-63
2023/03/13 08:39:55;;;;;;;2.80;2.47;;;7.70;53.20;;;;;;4964976;28;20043;-61
2023/03/13 08:42:22;;;;;;;3.45;2.90;;;7.70;52.80;;;;;;4956721;28;20035;-60
2023/03/13 08:44:47;;;;;;;2.40;2.20;;;7.70;53.00;;;;;;4956420;28;20594;-59
2023/03/13 08:47:14;;;;;;;3.55;2.40;;;7.70;52.50;;;;;;4949824;28;20041;-60
2023/03/13 08:49:39;;;;;;;3.55;2.80;;;7.80;53.00;;;;;;4958430;28;20041;-60
2023/03/13 08:52:06;;;;;;;3.60;2.55;;;7.80;53.10;;;;;;4951218;28;20031;-61
2023/03/13 08:54:32;;;;;;;4.28;2.40;;;7.90;53.20;;;;;;4959978;28;20067;-59
2023/03/13 08:56:58;;;;;;;3.70;2.80;;;7.90;52.50;;;;;;4955146;28;20027;-60
2023/03/13 08:59:25;;;;;;;2.65;2.40;;;7.90;52.40;;;;;;4954232;28;20042;-59
2023/03/13 09:01:50;;;;;;;2.65;2.45;;;7.90;52.40;;;;;;4947339;28;20026;-59
2023/03/13 09:04:16;;;;;;;3.95;2.58;;;7.90;51.70;;;;;;4955687;28;20069;-59
2023/03/13 09:06:42;;;;;;;2.72;2.53;;;7.90;52.20;;;;;;4951558;28;20366;-59
2023/03/13 09:09:08;;;;;;;3.53;2.45;;;7.90;52.30;;;;;;4958447;28;20042;-61
2023/03/13 09:11:36;;;;;;;3.10;2.50;;;7.90;52.50;;;;;;4962739;28;20031;-60
2023/03/13 09:14:02;;;;;;;3.70;2.60;;;8.00;52.50;;;;;;4950715;28;20045;-60
2023/03/13 09:16:30;;;;;;;3.60;2.55;;;8.00;52.50;;;;;;4963063;28;20042;-61
2023/03/13 09:18:57;;;;;;;5.35;2.95;;;8.00;52.30;;;;;;4955108;28;20038;-59
2023/03/13 09:21:34;;;;;;;3.10;2.78;;;8.00;52.70;;;;;;4946000;28;20062;-60
2023/03/13 09:24:01;;;;;;;3.83;2.50;;;8.10;52.70;;;;;;4960423;28;20088;-61
2023/03/13 09:26:28;;;;;;;4.05;2.40;;;8.10;52.70;;;;;;4956792;28;20034;-61
2023/03/13 09:28:54;;;;;;;3.10;2.45;;;8.10;52.70;;;;;;4955520;28;20113;-60
2023/03/13 09:31:31;;;;;;;3.67;2.58;;;8.20;52.50;;;;;;4958608;28;20043;-60
2023/03/13 09:33:57;;;;;;;3.17;2.70;;;8.20;52.30;;;;;;4950158;28;20061;-60
2023/03/13 09:36:24;;;;;;;3.35;2.50;;;8.10;51.90;;;;;;4962185;28;20058;-61
2023/03/13 09:38:51;;;;;;;3.22;2.40;;;8.10;51.90;;;;;;4955037;28;20045;-61
2023/03/13 09:41:17;;;;;;;3.88;2.70;;;8.10;52.00;;;;;;4963657;28;20070;-59
2023/03/13 09:44:15;;;;;;;3.03;2.50;;;8.10;52.30;;;;;;4959293;28;20367;-60
2023/03/13 09:46:43;;;;;;;3.85;2.50;;;8.10;52.40;;;;;;4959288;28;20389;-60
2023/03/13 09:49:30;;;;;;;3.95;2.78;;;8.10;52.60;;;;;;4957108;28;20670;-61
2023/03/13 09:52:14;;;;;;;2.78;2.47;;;8.30;52.50;;;;;;4957118;28;20130;-60
2023/03/13 09:54:42;;;;;;;2.85;2.60;;;8.30;52.20;;;;;;4956921;28;20039;-60
2023/03/13 09:57:30;;;;;;;4.07;2.55;;;8.30;52.40;;;;;;4958676;28;20061;-60
2023/03/13 10:00:11;;;;;;;2.80;2.60;;;8.30;52.20;;;;;;4965278;28;20129;-60
2023/03/13 10:02:37;;;;;;;3.78;2.60;;;8.30;52.30;;;;;;4962235;28;20035;-59
2023/03/13 10:05:19;;;;;;;3.22;2.53;;;8.40;52.50;;;;;;4957298;28;20039;-59
2023/03/13 10:07:44;;;;;;;;;;;8.40;52.40;;;;;;4971810;28;20126;-60
2023/03/13 10:10:16;;;;;;;3.33;2.38;;;8.40;51.90;;;;;;4958495;28;20260;-60
2023/03/13 10:12:47;;;;;;;3.15;2.40;;;8.50;52.60;;;;;;4956144;28;20026;-60
2023/03/13 10:15:38;;;;;;;2.22;2.05;;;8.50;52.10;;;;;;4955616;28;20041;-60
2023/03/13 10:18:22;;;;;;;3.60;2.28;;;8.50;52.20;;;;;;4954668;28;20066;-60
2023/03/13 10:20:52;;;;;;;4.88;2.80;;;8.60;52.00;;;;;;4953050;28;20493;-60
2023/03/13 10:23:36;;;;;;;3.03;2.33;;;8.60;52.20;;;;;;4953862;28;20101;-61
2023/03/13 10:26:01;;;;;;;2.55;2.30;;;8.60;52.60;;;;;;4955756;28;20026;-58
2023/03/13 10:28:27;;;;;;;3.20;2.65;;;8.70;52.20;;;;;;4949980;28;20058;-60
2023/03/13 10:31:27;;;;;;;3.55;2.67;;;8.60;52.20;;;;;;4963368;28;20393;-60
2023/03/13 10:33:53;;;;;;;2.70;2.50;;;8.70;52.60;;;;;;4956817;28;21878;-61
2023/03/13 10:36:19;;;;;;;3.85;3.00;;;8.70;52.20;;;;;;4935689;28;20176;-60
2023/03/13 10:38:53;;;;;;;3.50;2.78;;;8.70;52.40;;;;;;4947054;28;20039;-60
2023/03/13 10:41:22;;;;;;;5.20;3.10;;;8.70;52.60;;;;;;4944946;28;20622;-59
2023/03/13 10:44:03;;;;;;;4.47;3.20;;;8.70;52.70;;;;;;4943379;28;20030;-59
2023/03/13 10:46:31;;;;;;;3.95;3.25;;;8.70;52.90;;;;;;4953673;28;20031;-60
2023/03/13 10:49:00;;;;;;;4.18;3.20;;;8.80;52.80;;;;;;4958394;28;20117;-60
2023/03/13 10:51:39;;;;;;;3.35;2.85;;;8.80;53.00;;;;;;4951216;28;20490;-61
2023/03/13 10:54:24;;;;;;;3.88;2.90;;;8.90;53.20;;;;;;4951353;28;20138;-61
2023/03/13 10:57:05;;;;;;;4.35;2.70;;;8.90;53.10;;;;;;4942528;28;20622;-61
2023/03/13 10:59:31;;;;;;;4.07;2.90;;;8.90;53.20;;;;;;4948309;28;20039;-60
2023/03/13 11:02:01;;;;;;;2.90;2.60;;;9.00;53.10;;;;;;4952565;28;20035;-62
2023/03/13 11:04:31;;;;;;;3.20;2.63;;;9.00;53.00;;;;;;4941132;28;21496;-60
2023/03/13 11:07:02;;;;;;;4.07;3.00;;;9.00;53.10;;;;;;4951941;28;20863;-60
2023/03/13 11:09:29;;;;;;;3.55;2.70;;;9.00;53.10;;;;;;4961625;28;20035;-59
2023/03/13 11:12:26;;;;;;;3.90;2.80;;;9.00;53.10;;;;;;4948547;28;20030;-59
2023/03/13 11:14:59;;;;;;;3.65;2.75;;;9.10;52.90;;;;;;4952155;28;20042;-59
2023/03/13 11:17:35;;;;;;;3.78;2.83;;;9.10;52.80;;;;;;4951176;28;20150;-59
2023/03/13 11:20:23;;;;;;;2.65;2.45;;;9.10;52.80;;;;;;4951905;28;20043;-60
2023/03/13 11:22:54;;;;;;;3.30;3.00;;;9.10;52.90;;;;;;4953685;28;20122;-58
2023/03/13 11:25:38;;;;;;;3.85;2.88;;;9.10;52.70;;;;;;4961979;28;20050;-59
2023/03/13 11:28:51;;;;;;;3.20;2.70;;;9.10;52.90;;;;;;4954837;28;20027;-58
2023/03/13 11:31:39;;;;;;;3.88;2.90;;;9.10;52.80;;;;;;4926548;28;20055;-61
2023/03/13 11:34:10;;;;;;;3.20;2.70;;;9.00;53.00;;;;;;4948037;28;20046;-60
2023/03/13 11:37:00;;;;;;;3.40;2.65;;;9.00;52.70;;;;;;4957024;28;20035;-60
2023/03/13 11:39:49;;;;;;;3.72;2.78;;;9.00;53.00;;;;;;4954651;28;20049;-60
2023/03/13 11:42:45;;;;;;;4.72;2.97;;;9.00;53.10;;;;;;4960737;28;20450;-60
2023/03/13 11:45:16;;;;;;;2.85;2.50;;;9.00;53.20;;;;;;4955537;28;20031;-60
2023/03/13 11:47:51;;;;;;;4.38;3.00;;;9.10;53.30;;;;;;4959145;28;20058;-59
2023/03/13 11:50:41;;;;;;;3.28;2.85;;;9.10;53.10;;;;;;4963445;28;20137;-61
2023/03/13 11:53:15;;;;;;;3.05;2.72;;;9.10;53.00;;;;;;4950525;28;20126;-63
2023/03/13 11:55:49;;;;;;;3.85;2.90;;;9.00;53.10;;;;;;4950119;28;20675;-60
2023/03/13 11:58:24;;;;;;;3.40;2.80;;;9.00;53.10;;;;;;4950936;28;20031;-58
2023/03/13 12:00:54;;;;;;;3.80;2.70;;;9.00;53.20;;;;;;4953573;28;20043;-61
2023/03/13 12:03:33;;;;;;;5.30;2.97;;;9.00;53.10;;;;;;4957297;28;20027;-59
2023/03/13 12:06:01;;;;;;;3.88;2.97;;;9.00;53.40;;;;;;4958960;28;20031;-61
2023/03/13 12:08:35;;;;;;;3.53;3.00;;;9.10;53.50;;;;;;4952495;28;20078;-60
2023/03/13 12:11:08;;;;;;;5.70;3.13;;;9.10;53.50;;;;;;4956278;28;20039;-60
2023/03/13 12:13:39;;;;;;;4.47;3.08;;;9.10;53.40;;;;;;4955932;28;20118;-62
2023/03/13 12:16:20;;;;;;;3.53;3.20;;;9.20;53.30;;;;;;4957027;28;20058;-60
2023/03/13 12:18:49;;;;;;;4.07;2.90;;;9.20;53.30;;;;;;4951224;28;20077;-61
2023/03/13 12:21:41;;;;;;;4.70;3.10;;;9.20;53.30;;;;;;4952461;28;20109;-61
2023/03/13 12:24:35;;;;;;;5.03;3.28;;;9.20;53.30;;;;;;4951880;28;20513;-63
2023/03/13 12:27:19;;;;;;;5.43;3.20;;;9.20;53.50;;;;;;4955988;28;20030;-60
2023/03/13 12:29:53;;;;;;;4.18;3.13;;;9.20;53.60;;;;;;4952739;28;20031;-61
2023/03/13 12:32:49;;;;;;;4.82;3.10;;;9.20;53.60;;;;;;4944244;28;20046;-61
2023/03/13 12:35:27;;;;;;;3.70;3.25;;;9.30;53.80;;;;;;4949271;28;20089;-61
2023/03/13 12:38:19;;;;;;;4.18;3.30;;;9.30;53.90;;;;;;4954141;28;20019;-61
2023/03/13 12:41:24;;;;;;;3.70;3.17;;;9.40;54.10;;;;;;4954513;28;20050;-60
2023/03/13 12:43:52;;;;;;;3.78;3.10;;;9.40;53.90;;;;;;4943656;28;20137;-62
2023/03/13 12:46:52;;;;;;;3.85;3.20;;;9.40;54.00;;;;;;4948729;28;20126;-61
2023/03/13 12:49:45;;;;;;;3.72;3.17;;;9.40;53.80;;;;;;4940736;28;20038;-60
2023/03/13 12:52:22;;;;;;;4.60;3.13;;;9.50;54.10;;;;;;4964103;28;20035;-61
2023/03/13 12:55:30;;;;;;;3.97;3.15;;;9.50;54.10;;;;;;4959095;28;20051;-62
2023/03/13 12:57:58;;;;;;;3.67;3.30;;;9.50;54.00;;;;;;4937851;28;20097;-60
2023/03/13 13:00:27;;;;;;;3.25;2.95;;;9.50;54.50;;;;;;4955627;28;20038;-61
2023/03/13 13:03:15;;;;;;;4.00;3.03;;;9.50;53.80;;;;;;4953945;28;20035;-60
2023/03/13 13:06:06;;;;;;;3.67;2.60;;;9.50;53.70;;;;;;4955873;28;20129;-60
2023/03/13 13:08:57;;;;;;;3.75;3.17;;;9.50;53.70;;;;;;4952885;28;20039;-62
2023/03/13 13:11:38;;;;;;;3.85;3.00;;;9.50;53.80;;;;;;4947300;28;20070;-61
2023/03/13 13:14:16;;;;;;;4.35;2.83;;;9.50;53.80;;;;;;4956650;28;20066;-61